createdAt,value
2019-03-27T00:00:29.765Z,11.23
2019-03-27T00:03:02.246Z,9.23
2019-03-27T00:05:34.738Z,9.67
2019-03-27T00:08:07.257Z,12.50
2019-03-27T00:10:40.367Z,11.03
2019-03-27T00:13:12.839Z,9.73
2019-03-27T00:15:45.438Z,7.70
2019-03-27T00:18:17.906Z,11.57
2019-03-27T00:20:50.387Z,11.13
2019-03-27T00:23:22.839Z,12.60
2019-03-27T00:25:55.479Z,11.60
2019-03-27T00:28:27.947Z,10.97
2019-03-27T00:31:00.623Z,8.10
2019-03-27T00:33:33.186Z,11.80
2019-03-27T00:36:05.860Z,10.60
2019-03-27T00:38:38.448Z,13.23
2019-03-27T00:41:11.021Z,10.57
2019-03-27T00:43:43.499Z,11.43
2019-03-27T00:46:15.975Z,12.27
2019-03-27T00:48:48.566Z,10.37
2019-03-27T00:51:21.069Z,9.90
2019-03-27T00:53:53.545Z,11.13
2019-03-27T00:56:26.063Z,10.87
2019-03-27T00:58:58.565Z,9.37
2019-03-27T01:01:31.037Z,10.60
2019-03-27T01:04:03.514Z,10.00
2019-03-27T01:06:36.152Z,8.53
2019-03-27T01:09:08.979Z,10.57
2019-03-27T01:11:41.436Z,10.00
2019-03-27T01:14:13.961Z,10.40
2019-03-27T01:16:46.441Z,11.30
2019-03-27T01:19:18.938Z,11.77
2019-03-27T01:21:51.426Z,8.97
2019-03-27T01:24:23.920Z,10.93
2019-03-27T01:26:56.500Z,16.33
2019-03-27T01:29:29.036Z,15.10
2019-03-27T01:32:02.593Z,10.97
2019-03-27T01:34:35.196Z,13.13
2019-03-27T01:37:07.791Z,10.53
2019-03-27T01:39:40.240Z,15.80
2019-03-27T01:42:12.728Z,10.63
2019-03-27T01:44:45.202Z,12.20
2019-03-27T01:47:17.693Z,17.17
2019-03-27T01:49:50.162Z,15.00
2019-03-27T01:52:22.679Z,15.07
2019-03-27T01:54:55.134Z,12.17
2019-03-27T01:57:27.635Z,15.10
2019-03-27T02:00:00.328Z,12.17
2019-03-27T02:02:32.987Z,16.53
2019-03-27T02:05:07.707Z,10.17
2019-03-27T02:07:40.284Z,11.60
2019-03-27T02:10:13.213Z,11.43
2019-03-27T02:12:45.698Z,11.77
2019-03-27T02:15:18.355Z,15.33
2019-03-27T02:17:50.853Z,14.93
2019-03-27T02:20:23.383Z,16.30
2019-03-27T02:22:57.248Z,14.80
2019-03-27T02:25:29.718Z,12.70
2019-03-27T02:28:02.217Z,13.23
2019-03-27T02:30:34.692Z,16.27
2019-03-27T02:33:07.202Z,12.17
2019-03-27T02:35:39.697Z,17.13
2019-03-27T02:38:13.741Z,17.20
2019-03-27T02:40:46.226Z,14.23
2019-03-27T02:43:18.731Z,12.67
2019-03-27T02:45:51.220Z,15.47
2019-03-27T02:48:23.717Z,14.53
2019-03-27T02:50:56.233Z,15.33
2019-03-27T02:53:28.810Z,17.77
2019-03-27T02:56:01.333Z,14.50
2019-03-27T02:58:33.838Z,18.20
2019-03-27T03:01:06.991Z,16.10
2019-03-27T03:03:39.621Z,15.73
2019-03-27T03:06:12.121Z,15.27
2019-03-27T03:08:44.655Z,17.00
2019-03-27T03:11:17.147Z,12.40
2019-03-27T03:13:49.612Z,15.93
2019-03-27T03:16:22.102Z,16.53
2019-03-27T03:18:54.684Z,12.23
2019-03-27T03:21:27.193Z,11.10
2019-03-27T03:23:59.736Z,14.67
2019-03-27T03:26:32.270Z,12.67
2019-03-27T03:29:04.852Z,13.27
2019-03-27T03:31:37.403Z,14.03
2019-03-27T03:34:11.105Z,16.17
2019-03-27T03:36:43.594Z,12.97
2019-03-27T03:39:16.042Z,17.23
2019-03-27T03:41:49.862Z,12.93
2019-03-27T03:44:22.514Z,13.87
2019-03-27T03:47:00.106Z,15.00
2019-03-27T03:49:29.239Z,17.83
2019-03-27T03:52:01.858Z,15.07
2019-03-27T03:54:34.848Z,18.77
2019-03-27T03:57:08.490Z,17.77
2019-03-27T03:59:42.957Z,14.87
2019-03-27T04:02:17.439Z,11.70
2019-03-27T04:04:52.760Z,16.73
2019-03-27T04:07:25.210Z,14.30
2019-03-27T04:09:57.669Z,14.37
2019-03-27T04:12:30.101Z,11.57
2019-03-27T04:15:02.597Z,16.87
2019-03-27T04:17:35.095Z,15.83
2019-03-27T04:20:08.550Z,13.10
2019-03-27T04:22:41.118Z,13.57
2019-03-27T04:25:13.654Z,15.57
2019-03-27T04:27:46.115Z,14.50
2019-03-27T04:30:18.579Z,15.87
2019-03-27T04:32:51.024Z,12.23
2019-03-27T04:35:23.484Z,18.60
2019-03-27T04:37:57.517Z,15.20
2019-03-27T04:40:29.868Z,16.20
2019-03-27T04:43:02.379Z,15.87
2019-03-27T04:45:34.860Z,14.03
2019-03-27T04:48:07.283Z,17.07
2019-03-27T04:50:39.749Z,12.83
2019-03-27T04:53:12.213Z,18.97
2019-03-27T04:55:44.901Z,15.60
2019-03-27T04:58:17.353Z,16.90
2019-03-27T05:00:49.899Z,22.63
2019-03-27T05:03:22.351Z,26.53
2019-03-27T05:05:54.847Z,19.77
2019-03-27T05:08:27.324Z,17.23
2019-03-27T05:10:59.790Z,13.27
2019-03-27T05:13:32.259Z,12.80
2019-03-27T05:16:04.848Z,14.57
2019-03-27T05:18:37.309Z,13.23
2019-03-27T05:21:09.963Z,15.60
2019-03-27T05:23:42.401Z,17.13
2019-03-27T05:26:14.885Z,16.40
2019-03-27T05:28:47.345Z,12.90
2019-03-27T05:31:19.837Z,13.90
2019-03-27T05:33:52.334Z,11.57
2019-03-27T05:36:24.803Z,13.97
2019-03-27T05:38:57.284Z,13.87
2019-03-27T05:41:29.757Z,16.97
2019-03-27T05:44:02.241Z,11.00
2019-03-27T05:46:34.687Z,13.03
2019-03-27T05:49:07.253Z,10.93
2019-03-27T05:51:39.718Z,19.07
2019-03-27T05:54:12.186Z,15.07
2019-03-27T05:56:44.656Z,11.87
2019-03-27T05:59:17.130Z,15.07
2019-03-27T06:01:49.739Z,13.73
2019-03-27T06:04:22.174Z,13.30
2019-03-27T06:06:54.678Z,10.60
2019-03-27T06:09:33.253Z,12.93
2019-03-27T06:12:07.258Z,12.27
2019-03-27T06:14:39.732Z,16.93
2019-03-27T06:17:14.511Z,14.13
2019-03-27T06:19:49.303Z,17.33
2019-03-27T06:22:21.725Z,16.03
2019-03-27T06:25:00.404Z,16.33
2019-03-27T06:27:33.110Z,17.40
2019-03-27T06:30:05.842Z,12.53
2019-03-27T06:32:38.885Z,9.40
2019-03-27T06:35:11.590Z,13.77
2019-03-27T06:37:44.165Z,12.90
2019-03-27T06:40:19.125Z,12.10
2019-03-27T06:42:52.899Z,12.47
2019-03-27T06:45:27.128Z,17.33
2019-03-27T06:47:59.865Z,14.63
2019-03-27T06:50:32.459Z,13.17
2019-03-27T06:53:04.997Z,13.77
2019-03-27T06:55:37.446Z,14.17
2019-03-27T06:58:11.057Z,14.63
2019-03-27T07:00:43.754Z,12.57
2019-03-27T07:03:16.251Z,12.43
2019-03-27T07:05:48.779Z,15.33
2019-03-27T07:08:21.423Z,15.33
2019-03-27T07:10:53.973Z,12.90
2019-03-27T07:13:28.012Z,11.73
2019-03-27T07:16:00.537Z,12.70
2019-03-27T07:18:39.866Z,12.20
2019-03-27T07:21:07.640Z,11.60
2019-03-27T07:23:40.281Z,15.10
2019-03-27T07:26:12.861Z,16.73
2019-03-27T07:28:45.387Z,15.07
2019-03-27T07:31:17.935Z,14.53
2019-03-27T07:33:50.420Z,16.43
2019-03-27T07:36:22.901Z,18.20
2019-03-27T07:38:55.867Z,15.87
2019-03-27T07:41:28.942Z,16.03
2019-03-27T07:44:01.408Z,16.97
2019-03-27T07:46:34.025Z,16.90
2019-03-27T07:49:06.524Z,15.47
2019-03-27T07:51:39.072Z,16.13
2019-03-27T07:54:11.605Z,17.70
2019-03-27T07:56:44.279Z,11.43
2019-03-27T07:59:16.902Z,17.40
2019-03-27T08:01:49.486Z,16.57
2019-03-27T08:04:22.000Z,15.80
2019-03-27T08:06:54.793Z,20.15
2019-03-27T08:09:27.329Z,15.73
2019-03-27T08:12:00.981Z,16.47
2019-03-27T08:14:33.467Z,20.80
2019-03-27T08:17:06.112Z,17.83
2019-03-27T08:19:38.577Z,18.23
2019-03-27T08:22:11.118Z,18.40
2019-03-27T08:24:43.763Z,25.30
2019-03-27T08:27:17.844Z,21.00
2019-03-27T08:29:50.562Z,24.43
2019-03-27T08:32:24.235Z,27.97
2019-03-27T08:34:56.728Z,24.63
2019-03-27T08:37:29.239Z,24.00
2019-03-27T08:40:01.962Z,27.87
2019-03-27T08:42:34.541Z,27.27
2019-03-27T08:45:08.360Z,29.60
2019-03-27T08:47:42.076Z,25.77
2019-03-27T08:50:15.094Z,30.17
2019-03-27T08:52:47.729Z,31.53
2019-03-27T08:55:20.399Z,31.07
2019-03-27T08:57:53.008Z,27.90
2019-03-27T09:00:51.250Z,25.13
2019-03-27T09:03:23.759Z,22.47
2019-03-27T09:05:56.448Z,26.07
2019-03-27T09:08:28.916Z,24.13
2019-03-27T09:11:04.462Z,22.80
2019-03-27T09:13:36.055Z,19.50
2019-03-27T09:16:08.679Z,20.83
2019-03-27T09:18:41.438Z,15.23
2019-03-27T09:21:14.083Z,19.00
2019-03-27T09:23:46.895Z,31.45
2019-03-27T09:26:19.541Z,21.90
2019-03-27T09:28:52.074Z,22.40
2019-03-27T09:31:24.640Z,15.27
2019-03-27T09:33:58.660Z,14.97
2019-03-27T09:36:32.471Z,14.63
2019-03-27T09:39:07.529Z,12.43
2019-03-27T09:41:40.190Z,15.80
2019-03-27T09:44:12.713Z,19.57
2019-03-27T09:46:45.263Z,18.40
2019-03-27T09:49:17.759Z,15.23
2019-03-27T09:51:50.309Z,15.33
2019-03-27T09:54:22.800Z,16.90
2019-03-27T09:56:55.315Z,16.63
2019-03-27T09:59:27.861Z,14.57
2019-03-27T10:02:00.372Z,12.60
2019-03-27T10:04:33.064Z,11.83
2019-03-27T10:07:05.630Z,11.00
2019-03-27T10:09:38.201Z,8.30
2019-03-27T10:12:10.704Z,11.43
2019-03-27T10:14:43.226Z,9.67
2019-03-27T10:17:15.740Z,9.37
2019-03-27T10:19:48.439Z,8.80
2019-03-27T10:22:20.987Z,11.70
2019-03-27T10:24:53.566Z,9.67
2019-03-27T10:27:26.065Z,12.77
2019-03-27T10:30:00.421Z,8.80
2019-03-27T10:32:33.255Z,6.57
2019-03-27T10:35:06.965Z,5.97
2019-03-27T10:37:39.521Z,5.77
2019-03-27T10:40:12.103Z,6.17
2019-03-27T10:42:44.701Z,6.37
2019-03-27T10:45:17.227Z,7.37
2019-03-27T10:47:49.752Z,6.57
2019-03-27T10:50:22.285Z,6.47
2019-03-27T10:52:54.986Z,10.37
2019-03-27T10:55:27.524Z,10.30
2019-03-27T10:58:00.127Z,7.27
2019-03-27T11:00:34.621Z,16.37
2019-03-27T11:03:07.115Z,10.43
2019-03-27T11:05:39.686Z,5.90
2019-03-27T11:08:12.296Z,7.57
2019-03-27T11:10:44.988Z,8.57
2019-03-27T11:13:17.606Z,5.13
2019-03-27T11:15:50.093Z,6.07
2019-03-27T11:18:22.690Z,5.80
2019-03-27T11:20:55.208Z,6.43
2019-03-27T11:23:27.879Z,6.17
2019-03-27T11:26:00.403Z,6.77
2019-03-27T11:28:32.906Z,8.10
2019-03-27T11:31:05.597Z,7.37
2019-03-27T11:33:38.305Z,8.23
2019-03-27T11:36:10.950Z,9.67
2019-03-27T11:38:43.465Z,6.90
2019-03-27T11:41:15.970Z,8.17
2019-03-27T11:43:54.697Z,7.10
2019-03-27T11:46:23.015Z,5.73
2019-03-27T11:48:55.558Z,5.73
2019-03-27T11:51:28.103Z,6.73
2019-03-27T11:54:02.731Z,8.07
2019-03-27T11:56:35.409Z,7.20
2019-03-27T11:59:08.274Z,6.63
2019-03-27T12:01:43.747Z,8.33
2019-03-27T12:04:16.453Z,6.67
2019-03-27T12:06:49.018Z,4.60
2019-03-27T12:09:21.587Z,5.10
2019-03-27T12:11:55.107Z,7.90
2019-03-27T12:14:27.690Z,8.43
2019-03-27T12:17:00.342Z,4.60
2019-03-27T12:19:32.893Z,8.33
2019-03-27T12:22:05.568Z,7.87
2019-03-27T12:24:38.194Z,5.07
2019-03-27T12:27:10.765Z,8.23
2019-03-27T12:29:44.522Z,5.53
2019-03-27T12:32:17.099Z,6.73
2019-03-27T12:34:49.917Z,5.00
2019-03-27T12:37:22.614Z,6.30
2019-03-27T12:39:55.279Z,5.13
2019-03-27T12:42:27.890Z,4.77
2019-03-27T12:45:02.011Z,7.00
2019-03-27T12:47:35.076Z,4.53
2019-03-27T12:50:08.802Z,8.10
2019-03-27T12:52:41.338Z,5.73
2019-03-27T12:55:14.007Z,8.10
2019-03-27T12:57:46.495Z,8.13
2019-03-27T13:00:19.249Z,9.80
2019-03-27T13:02:51.987Z,7.93
2019-03-27T13:05:24.595Z,9.43
2019-03-27T13:07:57.108Z,9.13
2019-03-27T13:10:29.603Z,9.47
2019-03-27T13:13:02.130Z,7.77
2019-03-27T13:15:34.742Z,7.53
2019-03-27T13:18:07.334Z,6.77
2019-03-27T13:20:40.046Z,6.20
2019-03-27T13:23:12.656Z,10.53
2019-03-27T13:25:45.191Z,11.27
2019-03-27T13:28:18.953Z,10.80
2019-03-27T13:30:51.547Z,11.97
2019-03-27T13:33:24.073Z,6.33
2019-03-27T13:35:56.572Z,7.23
2019-03-27T13:38:29.227Z,9.27
2019-03-27T13:41:01.804Z,7.93
2019-03-27T13:43:36.649Z,5.17
2019-03-27T13:46:09.268Z,6.47
2019-03-27T13:48:43.385Z,4.60
2019-03-27T13:51:18.664Z,3.73
2019-03-27T13:53:51.366Z,5.53
2019-03-27T13:56:23.916Z,5.33
2019-03-27T13:58:58.942Z,3.90
2019-03-27T14:01:32.955Z,5.27
2019-03-27T14:04:05.447Z,5.53
2019-03-27T14:06:41.010Z,6.83
2019-03-27T14:09:13.557Z,6.07
2019-03-27T14:11:46.168Z,4.80
2019-03-27T14:14:18.742Z,5.07
2019-03-27T14:16:51.361Z,6.37
2019-03-27T14:19:23.949Z,6.23
2019-03-27T14:21:56.616Z,4.40
2019-03-27T14:24:29.279Z,6.87
2019-03-27T14:27:01.835Z,8.23
2019-03-27T14:29:34.454Z,5.70
2019-03-27T14:32:06.997Z,5.83
2019-03-27T14:34:39.612Z,5.57
2019-03-27T14:37:12.165Z,4.20
2019-03-27T14:39:45.718Z,4.50
2019-03-27T14:42:18.344Z,5.63
2019-03-27T14:44:52.834Z,4.87
2019-03-27T14:47:25.918Z,6.20
2019-03-27T14:49:58.543Z,5.63
2019-03-27T14:52:31.312Z,3.80
2019-03-27T14:55:04.157Z,4.17
2019-03-27T14:57:38.777Z,6.87
2019-03-27T15:00:12.512Z,5.73
2019-03-27T15:02:44.989Z,5.53
2019-03-27T15:05:20.124Z,4.93
2019-03-27T15:07:52.652Z,4.40
2019-03-27T15:10:26.459Z,4.70
2019-03-27T15:12:58.940Z,5.53
2019-03-27T15:15:31.603Z,7.57
2019-03-27T15:18:04.131Z,5.97
2019-03-27T15:20:38.136Z,7.13
2019-03-27T15:23:12.950Z,9.50
2019-03-27T15:25:45.672Z,5.63
2019-03-27T15:28:18.256Z,8.63
2019-03-27T15:30:50.852Z,4.63
2019-03-27T15:33:23.404Z,6.83
2019-03-27T15:35:55.905Z,6.50
2019-03-27T15:38:28.482Z,4.67
2019-03-27T15:41:01.154Z,7.03
2019-03-27T15:43:33.665Z,4.37
2019-03-27T15:46:06.340Z,4.93
2019-03-27T15:48:39.135Z,4.40
2019-03-27T15:51:12.982Z,6.27
2019-03-27T15:53:47.331Z,4.80
2019-03-27T15:56:19.907Z,4.63
2019-03-27T15:58:52.481Z,8.03
2019-03-27T16:01:25.113Z,5.07
2019-03-27T16:03:59.180Z,7.00
2019-03-27T16:06:33.451Z,4.57
2019-03-27T16:09:15.339Z,3.23
2019-03-27T16:11:47.978Z,5.57
2019-03-27T16:14:20.628Z,7.87
2019-03-27T16:17:12.018Z,6.50
2019-03-27T16:19:29.859Z,4.93
2019-03-27T16:22:02.373Z,4.20
2019-03-27T16:24:35.332Z,5.33
2019-03-27T16:27:08.185Z,6.13
2019-03-27T16:29:42.141Z,3.67
2019-03-27T16:32:19.336Z,4.40
2019-03-27T16:34:51.831Z,4.57
2019-03-27T16:37:24.664Z,4.10
2019-03-27T16:39:57.198Z,5.77
2019-03-27T16:42:29.914Z,5.00
2019-03-27T16:45:02.589Z,4.87
2019-03-27T16:47:35.211Z,5.23
2019-03-27T16:50:09.118Z,4.87
2019-03-27T16:52:43.227Z,4.03
2019-03-27T16:55:17.674Z,5.33
2019-03-27T16:57:51.404Z,3.80
2019-03-27T17:00:26.719Z,7.93
2019-03-27T17:05:33.935Z,4.40
2019-03-27T17:08:06.919Z,4.70
2019-03-27T17:10:39.492Z,4.27
2019-03-27T17:13:13.222Z,3.63
2019-03-27T17:15:45.771Z,5.57
2019-03-27T17:18:19.542Z,6.37
2019-03-27T17:20:52.259Z,6.40
2019-03-27T17:23:27.509Z,5.50
2019-03-27T17:26:00.247Z,6.03
2019-03-27T17:28:33.000Z,6.70
2019-03-27T17:31:05.873Z,3.67
2019-03-27T17:33:38.611Z,6.60
2019-03-27T17:36:11.291Z,4.23
2019-03-27T17:38:43.937Z,3.23
2019-03-27T17:41:17.671Z,6.53
2019-03-27T17:43:50.266Z,6.17
2019-03-27T17:46:22.812Z,7.00
2019-03-27T17:48:57.202Z,6.10
2019-03-27T17:51:29.777Z,5.00
2019-03-27T17:54:02.519Z,6.20
2019-03-27T17:56:35.335Z,4.50
2019-03-27T17:59:07.969Z,3.27
2019-03-27T18:01:42.354Z,4.80
2019-03-27T18:04:15.021Z,3.43
2019-03-27T18:06:47.655Z,3.47
2019-03-27T18:09:20.424Z,4.87
2019-03-27T18:11:52.942Z,3.03
2019-03-27T18:14:25.729Z,5.90
2019-03-27T18:16:59.856Z,3.97
2019-03-27T18:19:32.537Z,5.07
2019-03-27T18:22:07.848Z,3.43
2019-03-27T18:24:42.222Z,3.63
2019-03-27T18:27:14.785Z,4.57
2019-03-27T18:29:47.437Z,5.60
2019-03-27T18:32:20.251Z,3.37
2019-03-27T18:34:52.853Z,5.07
2019-03-27T18:37:25.663Z,4.13
2019-03-27T18:39:58.188Z,4.50
2019-03-27T18:42:30.983Z,5.10
2019-03-27T18:45:03.622Z,4.63
2019-03-27T18:47:36.279Z,5.13
2019-03-27T18:50:09.036Z,6.03
2019-03-27T18:52:41.740Z,4.60
2019-03-27T18:55:25.770Z,6.50
2019-03-27T18:57:59.462Z,4.60
2019-03-27T19:00:24.082Z,8.70
2019-03-27T19:02:56.716Z,5.40
2019-03-27T19:05:29.280Z,5.43
2019-03-27T19:08:01.879Z,8.97
2019-03-27T19:10:34.742Z,4.60
2019-03-27T19:13:07.546Z,5.53
2019-03-27T19:15:40.325Z,6.17
2019-03-27T19:18:12.908Z,6.10
2019-03-27T19:20:45.667Z,7.10
2019-03-27T19:23:18.225Z,5.43
2019-03-27T19:25:50.782Z,6.57
2019-03-27T19:28:24.772Z,4.47
2019-03-27T19:30:57.322Z,5.57
2019-03-27T19:33:29.934Z,5.77
2019-03-27T19:36:02.569Z,3.83
2019-03-27T19:38:35.142Z,4.97
2019-03-27T19:41:07.819Z,6.17
2019-03-27T19:43:40.537Z,6.60
2019-03-27T19:46:13.393Z,5.73
2019-03-27T19:48:47.282Z,9.33
2019-03-27T19:51:20.050Z,6.13
2019-03-27T19:53:54.420Z,5.50
2019-03-27T19:56:27.011Z,5.77
2019-03-27T19:58:59.700Z,5.30
2019-03-27T20:01:34.135Z,7.33
2019-03-27T20:04:06.911Z,5.80
2019-03-27T20:06:39.637Z,6.90
2019-03-27T20:09:12.359Z,5.97
2019-03-27T20:11:45.112Z,6.73
2019-03-27T20:14:17.739Z,6.10
2019-03-27T20:16:53.236Z,6.37
2019-03-27T20:19:25.980Z,5.20
2019-03-27T20:21:58.523Z,9.83
2019-03-27T20:24:40.877Z,5.90
2019-03-27T20:27:05.419Z,6.63
2019-03-27T20:29:38.013Z,8.47
2019-03-27T20:32:10.728Z,5.30
2019-03-27T20:34:44.394Z,7.73
2019-03-27T20:37:18.514Z,5.77
2019-03-27T20:39:52.482Z,7.60
2019-03-27T20:42:25.117Z,6.63
2019-03-27T20:44:57.862Z,5.53
2019-03-27T20:47:30.427Z,5.37
2019-03-27T20:50:05.578Z,6.77
2019-03-27T20:52:39.678Z,6.80
2019-03-27T20:55:12.940Z,6.63
2019-03-27T20:57:45.629Z,8.30
2019-03-27T21:00:18.814Z,6.37
2019-03-27T21:02:51.465Z,6.73
2019-03-27T21:05:24.095Z,7.37
2019-03-27T21:07:58.130Z,6.00
2019-03-27T21:10:30.623Z,7.13
2019-03-27T21:13:05.041Z,6.53
2019-03-27T21:15:38.830Z,7.17
2019-03-27T21:18:11.601Z,6.13
2019-03-27T21:20:44.316Z,7.30
2019-03-27T21:23:16.907Z,9.37
2019-03-27T21:25:49.467Z,6.23
2019-03-27T21:28:22.096Z,6.60
2019-03-27T21:30:54.736Z,6.93
2019-03-27T21:33:27.297Z,6.73
2019-03-27T21:36:00.103Z,5.10
2019-03-27T21:38:34.000Z,6.87
2019-03-27T21:41:06.658Z,6.97
2019-03-27T21:43:39.214Z,8.47
2019-03-27T21:46:13.557Z,7.23
2019-03-27T21:48:47.323Z,6.53
2019-03-27T21:51:21.415Z,6.60
2019-03-27T21:53:53.997Z,8.87
2019-03-27T21:56:26.689Z,6.60
2019-03-27T21:59:02.343Z,6.73
2019-03-27T22:01:33.717Z,7.93
2019-03-27T22:04:06.418Z,6.07
2019-03-27T22:06:40.865Z,7.83
2019-03-27T22:09:13.452Z,6.60
2019-03-27T22:11:46.249Z,7.27
2019-03-27T22:14:19.025Z,7.93
2019-03-27T22:16:51.573Z,8.63
2019-03-27T22:19:24.116Z,7.83
2019-03-27T22:21:56.631Z,9.27
2019-03-27T22:24:29.240Z,7.20
2019-03-27T22:27:01.899Z,6.70
2019-03-27T22:29:34.647Z,6.97
2019-03-27T22:32:07.228Z,7.80
2019-03-27T22:34:39.943Z,8.20
2019-03-27T22:37:12.535Z,5.83
2019-03-27T22:39:45.031Z,7.13
2019-03-27T22:42:17.685Z,5.70
2019-03-27T22:44:51.478Z,8.67
2019-03-27T22:47:24.082Z,9.00
2019-03-27T22:49:56.651Z,7.77
2019-03-27T22:52:29.147Z,8.60
2019-03-27T22:55:01.984Z,8.60
2019-03-27T22:57:34.517Z,8.27
2019-03-27T23:00:09.755Z,8.53
2019-03-27T23:02:42.842Z,6.60
2019-03-27T23:05:15.696Z,8.37
2019-03-27T23:07:48.550Z,6.63
2019-03-27T23:10:21.108Z,6.90
2019-03-27T23:12:53.653Z,7.23
2019-03-27T23:15:26.419Z,7.63
2019-03-27T23:17:59.065Z,8.90
2019-03-27T23:20:31.719Z,6.23
2019-03-27T23:23:04.247Z,6.63
2019-03-27T23:25:36.857Z,6.63
2019-03-27T23:28:09.407Z,7.33
2019-03-27T23:30:41.977Z,7.10
2019-03-27T23:33:14.473Z,7.70
2019-03-27T23:35:47.017Z,7.37
2019-03-27T23:38:19.537Z,5.83
2019-03-27T23:40:52.022Z,7.73
2019-03-27T23:43:24.593Z,6.60
2019-03-27T23:45:57.275Z,10.83
2019-03-27T23:48:29.760Z,8.33
2019-03-27T23:51:03.553Z,6.60
2019-03-27T23:53:36.122Z,8.50
2019-03-27T23:56:16.494Z,6.53
2019-03-27T23:58:44.005Z,8.63
